ARE4034 SKBO-SKRG
Flight info
| Callsign | ARE4034 |
|---|---|
| Flight time | 0h 40m |
| Altitude | 20000 |
| Route | TOBKI4R VASIL DCT NIRSO NIRSO3C |
| Aircraft | A320/M-SDE3FGHIRWY/LB1 |
Departure
| Time | 2026-04-22 01:48 |
|---|---|
| Airport | El Dorado International Airport (SKBO) |
Arrival
| Time | 2026-04-22 02:28 |
|---|---|
| Airport | Jose Maria Córdova International Airport (SKRG) |
| Time | Latitude | Longitude | Altitude | Speed | Heading |
|---|---|---|---|---|---|
| 2026-04-22 01:12 | 4.70026 | -74.14382 | 8366 ft | 0 kts | 37° |
| 2026-04-22 01:34 | 4.70015 | -74.14390 | 8366 ft | 4 kts | 32° |
| 2026-04-22 01:34 | 4.69991 | -74.14402 | 8366 ft | 4 kts | 14° |
| 2026-04-22 01:35 | 4.69967 | -74.14403 | 8366 ft | 4 kts | 330° |
| 2026-04-22 01:35 | 4.69957 | -74.14395 | 8366 ft | 1 kts | 307° |
| 2026-04-22 01:35 | 4.69956 | -74.14394 | 8366 ft | 0 kts | 307° |
| 2026-04-22 01:39 | 4.69973 | -74.14417 | 8366 ft | 9 kts | 307° |
| 2026-04-22 01:39 | 4.70011 | -74.14467 | 8366 ft | 11 kts | 307° |
| 2026-04-22 01:39 | 4.70060 | -74.14530 | 8366 ft | 12 kts | 307° |
| 2026-04-22 01:39 | 4.70091 | -74.14607 | 8366 ft | 12 kts | 303° |
| 2026-04-22 01:40 | 4.70157 | -74.14663 | 8366 ft | 13 kts | 312° |
| 2026-04-22 01:40 | 4.70126 | -74.14730 | 8366 ft | 12 kts | 215° |
| 2026-04-22 01:40 | 4.70054 | -74.14784 | 8366 ft | 13 kts | 217° |
| 2026-04-22 01:40 | 4.69977 | -74.14842 | 8366 ft | 14 kts | 217° |
| 2026-04-22 01:41 | 4.69894 | -74.14904 | 8366 ft | 15 kts | 217° |
| 2026-04-22 01:41 | 4.69862 | -74.14988 | 8366 ft | 15 kts | 309° |
| 2026-04-22 01:41 | 4.69929 | -74.15073 | 8366 ft | 16 kts | 306° |
| 2026-04-22 01:41 | 4.69997 | -74.15166 | 8366 ft | 17 kts | 306° |
| 2026-04-22 01:42 | 4.70070 | -74.15263 | 8366 ft | 18 kts | 308° |
| 2026-04-22 01:42 | 4.70148 | -74.15364 | 8365 ft | 19 kts | 307° |
| 2026-04-22 01:42 | 4.70230 | -74.15472 | 8366 ft | 20 kts | 307° |
| 2026-04-22 01:42 | 4.70314 | -74.15584 | 8365 ft | 21 kts | 307° |
| 2026-04-22 01:43 | 4.70401 | -74.15700 | 8366 ft | 21 kts | 308° |
| 2026-04-22 01:43 | 4.70494 | -74.15819 | 8366 ft | 22 kts | 307° |
| 2026-04-22 01:43 | 4.70586 | -74.15942 | 8366 ft | 22 kts | 307° |
| 2026-04-22 01:43 | 4.70681 | -74.16069 | 8366 ft | 23 kts | 307° |
| 2026-04-22 01:44 | 4.70779 | -74.16197 | 8366 ft | 23 kts | 307° |
| 2026-04-22 01:44 | 4.70879 | -74.16328 | 8366 ft | 24 kts | 307° |
| 2026-04-22 01:44 | 4.70980 | -74.16463 | 8366 ft | 25 kts | 307° |
| 2026-04-22 01:44 | 4.71083 | -74.16598 | 8366 ft | 25 kts | 307° |
| 2026-04-22 01:45 | 4.71181 | -74.16728 | 8366 ft | 17 kts | 307° |
| 2026-04-22 01:45 | 4.71169 | -74.16820 | 8365 ft | 16 kts | 217° |
| 2026-04-22 01:45 | 4.71065 | -74.16882 | 8363 ft | 18 kts | 187° |
| 2026-04-22 01:45 | 4.70985 | -74.16830 | 8363 ft | 1 kts | 124° |
| 2026-04-22 01:46 | 4.70983 | -74.16829 | 8363 ft | 2 kts | 124° |
| 2026-04-22 01:47 | 4.70878 | -74.16689 | 8363 ft | 60 kts | 127° |
| 2026-04-22 01:47 | 4.70489 | -74.16175 | 8366 ft | 123 kts | 127° |
| 2026-04-22 01:47 | 4.69871 | -74.15359 | 8367 ft | 173 kts | 127° |
| 2026-04-22 01:47 | 4.69087 | -74.14341 | 8752 ft | 186 kts | 128° |
| 2026-04-22 01:48 | 4.68235 | -74.13345 | 9392 ft | 189 kts | 141° |
| 2026-04-22 01:48 | 4.67104 | -74.12756 | 10164 ft | 179 kts | 171° |
| 2026-04-22 01:48 | 4.65953 | -74.12804 | 10834 ft | 159 kts | 206° |
| 2026-04-22 01:48 | 4.65058 | -74.13455 | 11054 ft | 166 kts | 232° |
| 2026-04-22 01:49 | 4.64421 | -74.14445 | 11313 ft | 172 kts | 247° |
| 2026-04-22 01:49 | 4.63929 | -74.15602 | 11442 ft | 189 kts | 249° |
| 2026-04-22 01:49 | 4.63574 | -74.16465 | 11502 ft | 206 kts | 249° |
| 2026-04-22 01:49 | 4.62805 | -74.18353 | 11675 ft | 236 kts | 249° |
| 2026-04-22 01:50 | 4.62378 | -74.19408 | 11930 ft | 245 kts | 249° |
| 2026-04-22 01:50 | 4.61683 | -74.20985 | 12567 ft | 250 kts | 252° |
| 2026-04-22 01:50 | 4.61216 | -74.22744 | 12851 ft | 273 kts | 258° |
| 2026-04-22 01:50 | 4.60795 | -74.24680 | 13077 ft | 296 kts | 259° |
| 2026-04-22 01:51 | 4.60381 | -74.26784 | 13279 ft | 320 kts | 261° |
| 2026-04-22 01:51 | 4.60092 | -74.29065 | 13515 ft | 339 kts | 265° |
| 2026-04-22 01:51 | 4.59934 | -74.31422 | 14047 ft | 347 kts | 268° |
| 2026-04-22 01:51 | 4.59835 | -74.33855 | 14699 ft | 352 kts | 268° |
| 2026-04-22 01:52 | 4.59750 | -74.36319 | 15365 ft | 356 kts | 268° |
| 2026-04-22 01:52 | 4.59665 | -74.38811 | 16014 ft | 359 kts | 270° |
| 2026-04-22 01:52 | 4.60094 | -74.41273 | 16600 ft | 363 kts | 292° |
| 2026-04-22 01:52 | 4.61265 | -74.43520 | 17216 ft | 366 kts | 303° |
| 2026-04-22 01:53 | 4.62787 | -74.45581 | 17816 ft | 370 kts | 309° |
| 2026-04-22 01:53 | 4.64480 | -74.47535 | 18401 ft | 373 kts | 312° |
| 2026-04-22 01:53 | 4.66230 | -74.49469 | 18963 ft | 376 kts | 312° |
| 2026-04-22 01:53 | 4.67976 | -74.51439 | 19521 ft | 380 kts | 311° |
| 2026-04-22 01:54 | 4.69690 | -74.53463 | 20017 ft | 383 kts | 309° |
| 2026-04-22 01:54 | 4.71371 | -74.55536 | 20174 ft | 383 kts | 308° |
| 2026-04-22 01:54 | 4.72995 | -74.57603 | 20235 ft | 369 kts | 308° |
| 2026-04-22 01:54 | 4.74582 | -74.59579 | 20257 ft | 362 kts | 313° |
| 2026-04-22 01:55 | 4.76448 | -74.61256 | 20246 ft | 360 kts | 322° |
| 2026-04-22 01:55 | 4.78444 | -74.62762 | 20224 ft | 359 kts | 323° |
| 2026-04-22 01:55 | 4.80450 | -74.64257 | 20214 ft | 359 kts | 323° |
| 2026-04-22 01:55 | 4.82461 | -74.65746 | 20205 ft | 359 kts | 323° |
| 2026-04-22 01:56 | 4.84475 | -74.67233 | 20168 ft | 359 kts | 323° |
| 2026-04-22 01:56 | 4.86473 | -74.68742 | 20106 ft | 359 kts | 322° |
| 2026-04-22 01:56 | 4.88446 | -74.70280 | 20105 ft | 359 kts | 321° |
| 2026-04-22 01:56 | 4.90407 | -74.71829 | 20103 ft | 359 kts | 321° |
| 2026-04-22 01:57 | 4.92362 | -74.73388 | 20100 ft | 359 kts | 319° |
| 2026-04-22 01:57 | 4.94087 | -74.75187 | 20092 ft | 358 kts | 307° |
| 2026-04-22 01:57 | 4.95395 | -74.77307 | 20088 ft | 358 kts | 296° |
| 2026-04-22 01:57 | 4.96473 | -74.79557 | 20075 ft | 358 kts | 296° |
| 2026-04-22 01:58 | 4.97564 | -74.81803 | 20072 ft | 358 kts | 296° |
| 2026-04-22 01:58 | 4.98644 | -74.84016 | 20064 ft | 358 kts | 296° |
| 2026-04-22 01:58 | 4.99742 | -74.86258 | 20060 ft | 358 kts | 296° |
| 2026-04-22 01:58 | 5.00840 | -74.88501 | 20056 ft | 358 kts | 296° |
| 2026-04-22 01:59 | 5.01937 | -74.90746 | 20056 ft | 359 kts | 296° |
| 2026-04-22 01:59 | 5.03034 | -74.92995 | 20055 ft | 359 kts | 296° |
| 2026-04-22 01:59 | 5.04128 | -74.95246 | 20057 ft | 359 kts | 296° |
| 2026-04-22 01:59 | 5.05222 | -74.97499 | 20059 ft | 359 kts | 296° |
| 2026-04-22 02:00 | 5.06319 | -74.99752 | 20065 ft | 360 kts | 296° |
| 2026-04-22 02:00 | 5.07416 | -75.02004 | 20068 ft | 360 kts | 296° |
| 2026-04-22 02:00 | 5.08516 | -75.04259 | 20073 ft | 359 kts | 296° |
| 2026-04-22 02:00 | 5.09614 | -75.06512 | 20077 ft | 360 kts | 296° |
| 2026-04-22 02:01 | 5.10709 | -75.08766 | 20077 ft | 359 kts | 296° |
| 2026-04-22 02:01 | 5.11790 | -75.10992 | 19827 ft | 351 kts | 295° |
| 2026-04-22 02:01 | 5.12848 | -75.13172 | 19576 ft | 344 kts | 296° |
| 2026-04-22 02:01 | 5.13890 | -75.15316 | 19326 ft | 340 kts | 296° |
| 2026-04-22 02:02 | 5.14928 | -75.17444 | 19070 ft | 338 kts | 297° |
| 2026-04-22 02:02 | 5.16182 | -75.19431 | 18828 ft | 337 kts | 308° |
| 2026-04-22 02:02 | 5.17716 | -75.21201 | 18575 ft | 336 kts | 311° |
| 2026-04-22 02:02 | 5.19267 | -75.22947 | 18323 ft | 334 kts | 311° |
| 2026-04-22 02:03 | 5.20807 | -75.24684 | 18073 ft | 333 kts | 311° |
| 2026-04-22 02:03 | 5.22340 | -75.26420 | 17823 ft | 331 kts | 311° |
| 2026-04-22 02:03 | 5.23869 | -75.28149 | 17573 ft | 330 kts | 311° |
| 2026-04-22 02:03 | 5.25390 | -75.29869 | 17321 ft | 329 kts | 311° |
| 2026-04-22 02:04 | 5.28419 | -75.33296 | 16822 ft | 327 kts | 311° |
| 2026-04-22 02:04 | 5.29925 | -75.34998 | 16572 ft | 325 kts | 311° |
| 2026-04-22 02:04 | 5.31432 | -75.36687 | 16321 ft | 324 kts | 314° |
| 2026-04-22 02:05 | 5.33139 | -75.38147 | 16069 ft | 322 kts | 326° |
| 2026-04-22 02:05 | 5.35106 | -75.39217 | 15874 ft | 322 kts | 337° |
| 2026-04-22 02:05 | 5.37242 | -75.39870 | 15630 ft | 321 kts | 349° |
| 2026-04-22 02:05 | 5.39453 | -75.40098 | 15378 ft | 317 kts | 356° |
| 2026-04-22 02:06 | 5.41639 | -75.40210 | 15128 ft | 312 kts | 356° |
| 2026-04-22 02:06 | 5.43790 | -75.40325 | 14865 ft | 307 kts | 356° |
| 2026-04-22 02:06 | 5.45912 | -75.40444 | 14629 ft | 303 kts | 356° |
| 2026-04-22 02:06 | 5.48008 | -75.40563 | 14375 ft | 300 kts | 356° |
| 2026-04-22 02:07 | 5.50079 | -75.40681 | 14117 ft | 296 kts | 356° |
| 2026-04-22 02:07 | 5.52117 | -75.40796 | 13869 ft | 291 kts | 356° |
| 2026-04-22 02:07 | 5.54126 | -75.40909 | 13619 ft | 286 kts | 356° |
| 2026-04-22 02:07 | 5.56101 | -75.41018 | 13367 ft | 283 kts | 356° |
| 2026-04-22 02:08 | 5.58028 | -75.41125 | 13118 ft | 279 kts | 356° |
| 2026-04-22 02:08 | 5.59955 | -75.41236 | 12934 ft | 274 kts | 355° |
| 2026-04-22 02:08 | 5.61824 | -75.41343 | 12890 ft | 266 kts | 355° |
| 2026-04-22 02:08 | 5.63665 | -75.41446 | 12898 ft | 265 kts | 356° |
| 2026-04-22 02:09 | 5.65504 | -75.41547 | 12898 ft | 265 kts | 356° |
| 2026-04-22 02:09 | 5.67346 | -75.41648 | 12902 ft | 265 kts | 355° |
| 2026-04-22 02:09 | 5.69186 | -75.41750 | 12907 ft | 265 kts | 356° |
| 2026-04-22 02:09 | 5.71030 | -75.41852 | 12906 ft | 265 kts | 356° |
| 2026-04-22 02:10 | 5.72870 | -75.41954 | 12906 ft | 265 kts | 356° |
| 2026-04-22 02:10 | 5.74713 | -75.42054 | 12908 ft | 266 kts | 355° |
| 2026-04-22 02:10 | 5.76557 | -75.42155 | 12913 ft | 265 kts | 356° |
| 2026-04-22 02:10 | 5.78401 | -75.42228 | 12913 ft | 265 kts | 359° |
| 2026-04-22 02:11 | 5.80251 | -75.42206 | 12820 ft | 268 kts | 0° |
| 2026-04-22 02:11 | 5.82106 | -75.42141 | 12567 ft | 266 kts | 1° |
| 2026-04-22 02:11 | 5.83958 | -75.42063 | 12184 ft | 268 kts | 1° |
| 2026-04-22 02:11 | 5.85837 | -75.41984 | 11799 ft | 270 kts | 1° |
| 2026-04-22 02:12 | 5.87682 | -75.41912 | 11743 ft | 262 kts | 1° |
| 2026-04-22 02:12 | 5.89479 | -75.41848 | 11677 ft | 253 kts | 1° |
| 2026-04-22 02:12 | 5.91218 | -75.41841 | 11425 ft | 249 kts | 358° |
| 2026-04-22 02:12 | 5.92917 | -75.41896 | 11337 ft | 237 kts | 356° |
| 2026-04-22 02:13 | 5.94570 | -75.41971 | 11335 ft | 244 kts | 356° |
| 2026-04-22 02:13 | 5.96317 | -75.42053 | 10820 ft | 259 kts | 356° |
| 2026-04-22 02:13 | 5.98164 | -75.42138 | 10207 ft | 270 kts | 358° |
| 2026-04-22 02:13 | 6.00029 | -75.42212 | 9971 ft | 264 kts | 358° |
| 2026-04-22 02:14 | 6.01813 | -75.42243 | 9963 ft | 249 kts | 359° |
| 2026-04-22 02:14 | 6.03469 | -75.42253 | 9987 ft | 225 kts | 360° |
| 2026-04-22 02:14 | 6.04938 | -75.42254 | 9957 ft | 197 kts | 360° |
| 2026-04-22 02:14 | 6.06232 | -75.42256 | 9961 ft | 178 kts | 360° |
| 2026-04-22 02:15 | 6.07449 | -75.42258 | 9970 ft | 172 kts | 359° |
| 2026-04-22 02:15 | 6.08640 | -75.42263 | 9977 ft | 170 kts | 359° |
| 2026-04-22 02:15 | 6.09825 | -75.42269 | 9937 ft | 171 kts | 360° |
| 2026-04-22 02:15 | 6.11029 | -75.42213 | 9453 ft | 177 kts | 5° |
| 2026-04-22 02:16 | 6.12318 | -75.42141 | 8629 ft | 195 kts | 358° |
| 2026-04-22 02:16 | 6.13713 | -75.42261 | 7985 ft | 198 kts | 355° |
| 2026-04-22 02:16 | 6.15148 | -75.42359 | 7997 ft | 225 kts | 358° |
| 2026-04-22 02:16 | 6.16830 | -75.42365 | 8228 ft | 260 kts | 2° |
| 2026-04-22 02:17 | 6.18766 | -75.42235 | 8254 ft | 285 kts | 5° |
| 2026-04-22 02:17 | 6.20653 | -75.42081 | 8390 ft | 260 kts | 5° |
| 2026-04-22 02:17 | 6.22265 | -75.41889 | 9407 ft | 211 kts | 12° |
| 2026-04-22 02:17 | 6.23538 | -75.41494 | 10645 ft | 178 kts | 25° |
| 2026-04-22 02:18 | 6.24476 | -75.40813 | 11313 ft | 164 kts | 50° |
| 2026-04-22 02:18 | 6.25064 | -75.39746 | 11315 ft | 190 kts | 75° |
| 2026-04-22 02:18 | 6.25140 | -75.38434 | 11750 ft | 182 kts | 103° |
| 2026-04-22 02:18 | 6.24689 | -75.37305 | 12234 ft | 175 kts | 127° |
| 2026-04-22 02:19 | 6.23897 | -75.36263 | 12172 ft | 207 kts | 131° |
| 2026-04-22 02:19 | 6.22905 | -75.35087 | 11961 ft | 229 kts | 132° |
| 2026-04-22 02:19 | 6.21656 | -75.34099 | 11738 ft | 230 kts | 157° |
| 2026-04-22 02:19 | 6.20176 | -75.33463 | 11544 ft | 232 kts | 158° |
| 2026-04-22 02:20 | 6.18690 | -75.32846 | 11336 ft | 230 kts | 162° |
| 2026-04-22 02:20 | 6.17129 | -75.32662 | 11129 ft | 227 kts | 189° |
| 2026-04-22 02:20 | 6.15639 | -75.33088 | 11018 ft | 227 kts | 199° |
| 2026-04-22 02:20 | 6.14146 | -75.33590 | 10993 ft | 227 kts | 199° |
| 2026-04-22 02:21 | 6.12648 | -75.34092 | 10906 ft | 227 kts | 199° |
| 2026-04-22 02:21 | 6.11151 | -75.34594 | 10785 ft | 227 kts | 199° |
| 2026-04-22 02:21 | 6.09657 | -75.35097 | 10658 ft | 226 kts | 199° |
| 2026-04-22 02:21 | 6.08168 | -75.35599 | 10538 ft | 226 kts | 199° |
| 2026-04-22 02:22 | 6.06681 | -75.36102 | 10417 ft | 226 kts | 199° |
| 2026-04-22 02:22 | 6.05192 | -75.36606 | 10286 ft | 226 kts | 199° |
| 2026-04-22 02:22 | 6.03707 | -75.37108 | 10168 ft | 225 kts | 199° |
| 2026-04-22 02:22 | 6.02222 | -75.37607 | 10037 ft | 225 kts | 199° |
| 2026-04-22 02:23 | 6.00741 | -75.38106 | 9912 ft | 224 kts | 198° |
| 2026-04-22 02:23 | 5.99269 | -75.38601 | 9788 ft | 222 kts | 198° |
| 2026-04-22 02:23 | 5.97855 | -75.39202 | 9648 ft | 221 kts | 220° |
| 2026-04-22 02:23 | 5.97058 | -75.40462 | 9520 ft | 218 kts | 263° |
| 2026-04-22 02:24 | 5.97330 | -75.41916 | 9395 ft | 216 kts | 306° |
| 2026-04-22 02:24 | 5.98518 | -75.42778 | 9264 ft | 216 kts | 349° |
| 2026-04-22 02:24 | 6.00009 | -75.42712 | 9163 ft | 218 kts | 12° |
| 2026-04-22 02:24 | 6.01477 | -75.42390 | 9063 ft | 208 kts | 13° |
| 2026-04-22 02:25 | 6.02841 | -75.42241 | 8921 ft | 187 kts | 2° |
| 2026-04-22 02:25 | 6.04084 | -75.42233 | 8785 ft | 174 kts | 0° |
| 2026-04-22 02:25 | 6.05272 | -75.42238 | 8658 ft | 167 kts | 0° |
| 2026-04-22 02:25 | 6.06425 | -75.42247 | 8578 ft | 165 kts | 360° |
| 2026-04-22 02:26 | 6.07573 | -75.42254 | 8403 ft | 165 kts | 0° |
| 2026-04-22 02:26 | 6.08718 | -75.42261 | 8196 ft | 165 kts | 0° |
| 2026-04-22 02:26 | 6.09859 | -75.42268 | 7985 ft | 163 kts | 0° |
| 2026-04-22 02:26 | 6.10987 | -75.42277 | 7775 ft | 160 kts | 360° |
| 2026-04-22 02:27 | 6.12106 | -75.42284 | 7570 ft | 162 kts | 359° |
| 2026-04-22 02:27 | 6.13228 | -75.42292 | 7329 ft | 161 kts | 1° |
| 2026-04-22 02:27 | 6.14345 | -75.42299 | 7120 ft | 160 kts | 359° |
| 2026-04-22 02:27 | 6.15442 | -75.42304 | 6980 ft | 149 kts | 360° |
| 2026-04-22 02:28 | 6.16337 | -75.42309 | 6981 ft | 105 kts | 359° |
| 2026-04-22 02:28 | 6.16888 | -75.42313 | 7003 ft | 56 kts | 359° |
| 2026-04-22 02:28 | 6.17184 | -75.42315 | 7015 ft | 37 kts | 359° |
| 2026-04-22 02:28 | 6.17415 | -75.42317 | 7021 ft | 29 kts | 360° |
| 2026-04-22 02:29 | 6.17560 | -75.42331 | 7024 ft | 11 kts | 325° |
| 2026-04-22 02:29 | 6.17568 | -75.42349 | 7024 ft | 2 kts | 273° |
| 2026-04-22 02:29 | 6.17567 | -75.42381 | 7024 ft | 7 kts | 268° |
| 2026-04-22 02:29 | 6.17566 | -75.42448 | 7023 ft | 12 kts | 269° |
| 2026-04-22 02:30 | 6.17508 | -75.42531 | 7019 ft | 19 kts | 214° |
| 2026-04-22 02:30 | 6.17433 | -75.42587 | 7017 ft | 10 kts | 220° |
| 2026-04-22 02:30 | 6.17392 | -75.42616 | 7020 ft | 5 kts | 201° |
| 2026-04-22 02:30 | 6.17373 | -75.42619 | 7018 ft | 1 kts | 185° |
| 2026-04-22 02:31 | 6.17360 | -75.42620 | 7020 ft | 5 kts | 184° |
| 2026-04-22 02:31 | 6.17300 | -75.42620 | 7018 ft | 12 kts | 178° |
| 2026-04-22 02:31 | 6.17211 | -75.42617 | 7018 ft | 13 kts | 178° |
| 2026-04-22 02:31 | 6.17128 | -75.42618 | 7017 ft | 11 kts | 180° |
| 2026-04-22 02:32 | 6.17058 | -75.42630 | 7016 ft | 9 kts | 201° |
| 2026-04-22 02:32 | 6.17025 | -75.42656 | 7017 ft | 3 kts | 224° |
| 2026-04-22 02:32 | 6.17019 | -75.42661 | 7018 ft | 2 kts | 221° |
| 2026-04-22 02:32 | 6.16986 | -75.42687 | 7019 ft | 10 kts | 218° |
| 2026-04-22 02:33 | 6.16930 | -75.42754 | 7018 ft | 15 kts | 241° |
| 2026-04-22 02:33 | 6.16926 | -75.42816 | 7020 ft | 8 kts | 296° |
| 2026-04-22 02:33 | 6.16950 | -75.42835 | 7018 ft | 0 kts | 339° |
| 2026-04-22 02:33 | 6.16951 | -75.42835 | 7018 ft | 0 kts | 339° |